Time;durP1;ratioP1;P1;durP2;ratioP2;P2;SDS_P1;SDS_P2;PMS_P1;PMS_P2;Temp;Humidity;BMP_temperature;BMP_pressure;BME280_temperature;BME280_humidity;BME280_pressure;Samples;Min_cycle;Max_cycle;Signal;HPM_P1;HPM_P2
2022/07/11 00:01:27;;;;;;;2.60;1.10;;;;;;;17.54;100.00;102500.16;5012279;28;20046;-41
2022/07/11 00:03:56;;;;;;;3.85;1.20;;;;;;;17.52;100.00;102496.81;5011139;28;20080;-36
2022/07/11 00:06:24;;;;;;;2.55;1.20;;;;;;;17.52;100.00;102493.16;5014837;28;20112;-34
2022/07/11 00:08:51;;;;;;;3.38;1.20;;;;;;;17.51;100.00;102500.78;5015827;28;20105;-33
2022/07/11 00:11:19;;;;;;;4.43;1.30;;;;;;;17.51;100.00;102499.94;5015712;28;20081;-34
2022/07/11 00:13:47;;;;;;;3.92;1.10;;;;;;;17.51;100.00;102506.41;5015816;28;20076;-41
2022/07/11 00:16:15;;;;;;;3.97;1.40;;;;;;;17.51;100.00;102497.94;5016167;28;20041;-34
2022/07/11 00:18:43;;;;;;;2.78;1.45;;;;;;;17.51;100.00;102502.75;5014972;28;20495;-33
2022/07/11 00:21:12;;;;;;;2.50;1.10;;;;;;;17.49;100.00;102503.06;5015971;28;20049;-37
2022/07/11 00:23:40;;;;;;;3.05;1.00;;;;;;;17.46;100.00;102500.84;5015636;28;20045;-33
2022/07/11 00:26:08;;;;;;;4.22;1.30;;;;;;;17.45;100.00;102499.16;5015360;28;20487;-33
2022/07/11 00:28:36;;;;;;;2.22;1.10;;;;;;;17.45;100.00;102498.31;5015592;28;20137;-32
2022/07/11 00:31:07;;;;;;;2.65;0.90;;;;;;;17.45;100.00;102492.69;5015897;28;20136;-33
2022/07/11 00:33:35;;;;;;;2.77;1.07;;;;;;;17.43;100.00;102489.31;5014876;28;20096;-39
2022/07/11 00:36:03;;;;;;;2.45;1.30;;;;;;;17.41;100.00;102488.78;5015691;28;20129;-34
2022/07/11 00:38:33;;;;;;;2.45;0.95;;;;;;;17.41;100.00;102489.63;5015578;28;20046;-34
2022/07/11 00:41:01;;;;;;;2.65;1.10;;;;;;;17.40;100.00;102487.94;5014207;28;20149;-38
2022/07/11 00:43:32;;;;;;;5.13;1.50;;;;;;;17.39;100.00;102483.44;5015549;28;20048;-39
2022/07/11 00:46:00;;;;;;;2.67;0.90;;;;;;;17.37;100.00;102476.47;5014644;28;20499;-42
2022/07/11 00:48:28;;;;;;;3.22;1.00;;;;;;;17.37;100.00;102480.13;5015259;28;20057;-33
2022/07/11 00:50:57;;;;;;;3.53;1.33;;;;;;;17.36;100.00;102477.59;5014628;28;20050;-36
2022/07/11 00:53:25;;;;;;;1.95;0.80;;;;;;;17.34;100.00;102482.72;5014608;28;20062;-33
2022/07/11 00:55:55;;;;;;;2.10;1.00;;;;;;;17.35;100.00;102484.38;5011720;28;20060;-33
2022/07/11 00:58:24;;;;;;;1.80;0.90;;;;;;;17.34;100.00;102482.72;5015465;28;20057;-33
2022/07/11 01:00:52;;;;;;;3.33;1.02;;;;;;;17.32;100.00;102485.84;5013995;28;20053;-36
2022/07/11 01:03:20;;;;;;;2.08;0.90;;;;;;;17.32;100.00;102485.00;5015420;28;20050;-36
2022/07/11 01:05:47;;;;;;;1.58;0.80;;;;;;;17.32;100.00;102485.00;5014779;28;20525;-33
2022/07/11 01:08:16;;;;;;;1.83;1.05;;;;;;;17.32;100.00;102485.84;5014456;28;20077;-35
2022/07/11 01:10:44;;;;;;;3.38;1.20;;;;;;;17.32;100.00;102480.19;5014864;28;20050;-33
2022/07/11 01:13:13;;;;;;;3.47;1.25;;;;;;;17.31;100.00;102491.78;5015148;28;20430;-34
2022/07/11 01:15:41;;;;;;;3.00;1.30;;;;;;;17.29;100.00;102491.25;5013778;28;20048;-34
2022/07/11 01:18:09;;;;;;;2.40;0.98;;;;;;;17.27;100.00;102485.91;5014137;28;20046;-34
2022/07/11 01:20:37;;;;;;;3.67;1.73;;;;;;;17.28;100.00;102496.03;5014554;28;20078;-34
2022/07/11 01:23:06;;;;;;;3.78;1.52;;;;;;;17.26;100.00;102498.31;5013952;28;20422;-34
2022/07/11 01:25:35;;;;;;;2.58;1.10;;;;;;;17.25;100.00;102496.66;5014099;28;20663;-41
2022/07/11 01:28:04;;;;;;;2.65;1.10;;;;;;;17.24;100.00;102492.16;5014584;28;20506;-34
2022/07/11 01:30:33;;;;;;;5.25;1.50;;;;;;;17.23;100.00;102484.81;5014917;28;20518;-32
2022/07/11 01:33:02;;;;;;;3.50;1.30;;;;;;;17.20;100.00;102489.09;5014860;28;20049;-41
2022/07/11 01:35:30;;;;;;;2.97;1.20;;;;;;;17.17;100.00;102489.72;5013660;28;20052;-30
2022/07/11 01:37:58;;;;;;;2.85;1.30;;;;;;;17.15;100.00;102491.16;5014751;28;20052;-36
2022/07/11 01:40:31;;;;;;;1.63;0.98;;;;;;;17.12;100.00;102477.66;5014511;28;20050;-33
2022/07/11 01:42:59;;;;;;;1.65;1.00;;;;;;;17.12;100.00;102491.78;5016715;28;20052;-39
2022/07/11 01:45:27;;;;;;;2.25;1.00;;;;;;;17.12;100.00;102486.97;5014650;28;20124;-35
2022/07/11 01:47:55;;;;;;;2.78;1.00;;;;;;;17.11;100.00;102488.13;5014259;28;20056;-36
2022/07/11 01:50:22;;;;;;;1.48;0.75;;;;;;;17.12;100.00;102486.13;5013475;28;20049;-36
2022/07/11 01:52:50;;;;;;;2.30;0.90;;;;;;;17.13;100.00;102487.81;5013971;28;20062;-37
2022/07/11 01:55:18;;;;;;;2.28;1.25;;;;;;;17.14;100.00;102483.84;5014424;28;20046;-33
2022/07/11 01:57:47;;;;;;;3.17;1.20;;;;;;;17.13;100.00;102482.16;5013283;28;20056;-38
2022/07/11 02:00:15;;;;;;;3.25;1.55;;;;;;;17.10;100.00;102483.59;5014430;28;20077;-34
2022/07/11 02:02:43;;;;;;;2.85;1.60;;;;;;;17.12;100.00;102486.13;5013803;28;20034;-33
2022/07/11 02:05:11;;;;;;;5.30;1.80;;;;;;;17.11;100.00;102484.44;5013489;28;20069;-32
2022/07/11 02:10:28;;;;;;;2.58;1.20;;;;;;;17.08;100.00;102468.13;5012374;28;20064;-37
2022/07/11 02:12:58;;;;;;;;;;;;;;;17.05;100.00;102477.19;5014144;28;20045;-32
2022/07/11 02:15:26;;;;;;;2.35;1.10;;;;;;;17.01;100.00;102468.50;5013819;28;19925;-32
2022/07/11 02:17:54;;;;;;;5.80;1.92;;;;;;;17.06;100.00;102470.41;5012594;28;20045;-33
2022/07/11 02:20:23;;;;;;;2.50;1.58;;;;;;;17.08;100.00;102468.13;5013976;28;20046;-40
2022/07/11 02:22:51;;;;;;;4.00;1.50;;;;;;;17.09;100.00;102467.00;5013622;28;20056;-32
2022/07/11 02:25:21;;;;;;;3.97;1.33;;;;;;;17.08;100.00;102468.97;5013083;28;20088;-34
2022/07/11 02:27:49;;;;;;;4.35;1.50;;;;;;;17.09;100.00;102467.00;5013121;28;20046;-38
2022/07/11 02:30:19;;;;;;;2.63;1.25;;;;;;;17.09;100.00;102458.53;5013738;28;20081;-32
2022/07/11 02:32:47;;;;;;;3.67;1.65;;;;;;;17.07;100.00;102456.00;5012998;28;20044;-32
2022/07/11 02:35:14;;;;;;;2.58;1.15;;;;;;;17.08;100.00;102456.84;5013449;28;20056;-33
2022/07/11 02:37:43;;;;;;;2.85;1.20;;;;;;;17.07;100.00;102460.81;5013012;28;20487;-32
2022/07/11 02:40:11;;;;;;;3.40;1.25;;;;;;;17.03;100.00;102466.22;5012772;28;20124;-35
2022/07/11 02:42:39;;;;;;;3.55;0.95;;;;;;;17.03;100.00;102459.72;5013159;28;20494;-41
2022/07/11 02:45:08;;;;;;;1.08;0.60;;;;;;;17.02;100.00;102463.69;5012127;28;20052;-32
2022/07/11 02:47:39;;;;;;;2.40;0.90;;;;;;;17.03;100.00;102460.56;5012573;28;20054;-39
2022/07/11 02:50:08;;;;;;;1.60;0.77;;;;;;;17.02;100.00;102463.69;5013146;28;20065;-32
2022/07/11 02:52:36;;;;;;;5.38;1.17;;;;;;;17.02;100.00;102461.72;5012519;28;20155;-30
2022/07/11 02:55:05;;;;;;;1.92;0.90;;;;;;;17.03;100.00;102465.38;5012910;28;20410;-37
2022/07/11 02:57:32;;;;;;;4.00;1.08;;;;;;;17.04;100.00;102459.44;5013021;28;20061;-33
2022/07/11 03:00:00;;;;;;;4.18;1.30;;;;;;;17.05;100.00;102469.56;5008706;28;20140;-32
2022/07/11 03:02:28;;;;;;;2.90;1.02;;;;;;;17.05;100.00;102468.72;5013186;28;20133;-32
2022/07/11 03:04:58;;;;;;;2.45;1.13;;;;;;;17.05;100.00;102465.91;5012631;28;20049;-32
2022/07/11 03:07:26;;;;;;;3.15;1.23;;;;;;;17.02;100.00;102477.78;5012396;28;20053;-39
2022/07/11 03:09:54;;;;;;;2.28;0.90;;;;;;;16.99;100.00;102476.41;5012297;28;20052;-33
2022/07/11 03:12:23;;;;;;;2.05;1.10;;;;;;;16.96;100.00;102479.88;5012236;28;20054;-33
2022/07/11 03:14:51;;;;;;;2.25;1.20;;;;;;;16.94;100.00;102484.97;5009791;28;20060;-42
2022/07/11 03:17:19;;;;;;;2.80;1.00;;;;;;;16.93;100.00;102486.13;5010734;28;20053;-34
2022/07/11 03:19:48;;;;;;;2.15;1.00;;;;;;;16.93;100.00;102488.09;5010401;28;20058;-33
2022/07/11 03:22:17;;;;;;;2.25;1.10;;;;;;;16.90;100.00;102485.88;5010285;28;20038;-34
2022/07/11 03:24:45;;;;;;;2.42;1.10;;;;;;;16.86;100.00;102486.47;5010633;28;20048;-32
2022/07/11 03:27:13;;;;;;;2.13;0.88;;;;;;;16.82;100.00;102488.22;5011467;28;20507;-34
2022/07/11 03:29:41;;;;;;;1.50;0.80;;;;;;;16.79;100.00;102488.81;5010668;28;20096;-34
2022/07/11 03:32:09;;;;;;;2.33;0.80;;;;;;;16.77;100.00;102482.66;5010584;28;20088;-34
2022/07/11 03:34:37;;;;;;;2.47;0.82;;;;;;;16.77;100.00;102490.28;5011408;28;20068;-33
2022/07/11 03:37:06;;;;;;;4.53;0.80;;;;;;;16.75;100.00;102484.94;5010986;28;20490;-40
2022/07/11 03:39:35;;;;;;;1.60;0.70;;;;;;;16.74;100.00;102486.09;5011498;28;20056;-35
2022/07/11 03:42:03;;;;;;;2.47;0.90;;;;;;;16.74;100.00;102488.06;5010055;28;20060;-32
2022/07/11 03:44:31;;;;;;;2.40;1.00;;;;;;;16.75;100.00;102493.41;5012319;28;20407;-38
2022/07/11 03:46:58;;;;;;;1.45;0.80;;;;;;;16.76;100.00;102485.78;5011918;28;20050;-35
2022/07/11 03:49:26;;;;;;;3.13;1.02;;;;;;;16.78;100.00;102487.16;5011487;28;20052;-35
2022/07/11 03:51:54;;;;;;;2.55;1.00;;;;;;;16.78;100.00;102487.16;5011870;28;20146;-35
2022/07/11 03:54:22;;;;;;;2.35;0.90;;;;;;;16.79;100.00;102485.16;5012097;28;20057;-36
2022/07/11 03:56:51;;;;;;;2.65;1.00;;;;;;;16.78;100.00;102494.78;5011138;28;20521;-37
2022/07/11 03:59:19;;;;;;;2.60;1.20;;;;;;;16.76;100.00;102503.53;5012531;28;20057;-32
2022/07/11 04:01:47;;;;;;;1.73;0.85;;;;;;;16.76;100.00;102497.91;5011881;28;20046;-42
2022/07/11 04:04:15;;;;;;;4.18;1.20;;;;;;;16.73;100.00;102486.38;5011389;28;20052;-34
2022/07/11 04:06:44;;;;;;;1.40;0.80;;;;;;;16.71;100.00;102494.28;5011628;28;20112;-32
2022/07/11 04:09:12;;;;;;;1.52;0.70;;;;;;;16.69;100.00;102500.22;5012166;28;20053;-33
2022/07/11 04:11:39;;;;;;;1.50;0.77;;;;;;;16.69;100.00;102494.59;5011064;28;20050;-32
2022/07/11 04:14:09;;;;;;;3.05;1.08;;;;;;;16.69;100.00;102491.78;5011996;28;20060;-41
2022/07/11 04:16:37;;;;;;;1.73;0.82;;;;;;;16.70;100.00;102493.44;5011517;28;20057;-32
2022/07/11 04:19:05;;;;;;;3.00;0.90;;;;;;;16.70;100.00;102487.81;5011276;28;20065;-33
2022/07/11 04:21:32;;;;;;;2.72;0.90;;;;;;;16.69;100.00;102488.94;5011813;28;20046;-32
2022/07/11 04:24:01;;;;;;;2.13;0.90;;;;;;;16.69;100.00;102488.94;5011380;28;20053;-33
2022/07/11 04:26:28;;;;;;;2.35;0.80;;;;;;;16.66;100.00;102489.56;5011705;28;20050;-40
2022/07/11 04:28:56;;;;;;;2.75;0.93;;;;;;;16.66;100.00;102491.53;5011937;28;20057;-33
2022/07/11 04:31:25;;;;;;;1.55;0.73;;;;;;;16.68;100.00;102492.06;5010969;28;20409;-40
2022/07/11 04:33:53;;;;;;;2.65;0.90;;;;;;;16.66;100.00;102486.72;5008866;28;20042;-32
2022/07/11 04:36:22;;;;;;;3.25;1.00;;;;;;;16.67;100.00;102496.88;5011765;28;20042;-40
2022/07/11 04:38:49;;;;;;;2.20;0.80;;;;;;;16.70;100.00;102495.44;5009425;28;20529;-33
2022/07/11 04:41:17;;;;;;;3.03;1.02;;;;;;;16.71;100.00;102497.94;5011795;28;20448;-34
2022/07/11 04:43:45;;;;;;;2.35;0.90;;;;;;;16.70;100.00;102485.00;5011464;28;20050;-33
2022/07/11 04:46:14;;;;;;;3.67;1.10;;;;;;;16.71;100.00;102489.50;5011205;28;20053;-32
2022/07/11 04:48:43;;;;;;;1.55;0.60;;;;;;;16.72;100.00;102487.50;4998638;28;20062;-33
2022/07/11 04:51:11;;;;;;;2.97;0.90;;;;;;;16.72;100.00;102490.34;5007082;28;20518;-40
2022/07/11 04:53:39;;;;;;;1.88;0.75;;;;;;;16.72;100.00;102494.00;5009887;28;20058;-32
2022/07/11 04:56:07;;;;;;;1.63;0.60;;;;;;;16.73;100.00;102495.69;5015412;28;20111;-33
2022/07/11 04:58:35;;;;;;;1.95;0.60;;;;;;;16.74;100.00;102497.34;5014836;28;20041;-35
2022/07/11 05:01:03;;;;;;;1.65;0.60;;;;;;;16.74;100.00;102497.34;5014800;28;20133;-34
2022/07/11 05:03:32;;;;;;;1.83;0.60;;;;;;;16.75;100.00;102498.19;5015071;28;20050;-32
2022/07/11 05:06:01;;;;;;;2.38;0.60;;;;;;;16.75;100.00;102498.19;5015323;28;20085;-37
2022/07/11 05:08:29;;;;;;;1.33;0.60;;;;;;;16.76;100.00;102500.72;5013557;28;20065;-32
2022/07/11 05:10:57;;;;;;;2.00;0.60;;;;;;;16.78;100.00;102504.06;5009815;28;20060;-35
2022/07/11 05:13:25;;;;;;;1.35;0.43;;;;;;;16.80;100.00;102504.59;5014015;28;20042;-32
2022/07/11 05:15:53;;;;;;;1.60;0.70;;;;;;;16.83;100.00;102506.81;5015017;28;20454;-39
2022/07/11 05:18:21;;;;;;;2.05;0.60;;;;;;;16.90;100.00;102514.06;5014633;28;20060;-38
2022/07/11 05:20:49;;;;;;;0.70;0.30;;;;;;;16.97;100.00;102506.94;5012763;28;20053;-31
2022/07/11 05:23:18;;;;;;;0.73;0.40;;;;;;;17.05;100.00;102503.41;5003607;28;20475;-31
2022/07/11 05:25:46;;;;;;;1.65;0.40;;;;;;;17.10;100.00;102491.22;5015033;28;20076;-31
2022/07/11 05:28:14;;;;;;;1.40;0.60;;;;;;;17.12;100.00;102491.78;5013797;28;20050;-32
2022/07/11 05:30:42;;;;;;;2.13;0.60;;;;;;;17.14;100.00;102495.97;5014915;28;20128;-31
2022/07/11 05:33:09;;;;;;;1.23;0.50;;;;;;;17.14;100.00;102500.78;5014803;28;20052;-32
2022/07/11 05:35:37;;;;;;;1.40;0.57;;;;;;;17.15;100.00;102500.47;5012997;28;20054;-32
2022/07/11 05:38:05;;;;;;;1.10;0.50;;;;;;;17.17;100.00;102500.16;5011473;28;20046;-32
2022/07/11 05:40:34;;;;;;;1.40;0.50;;;;;;;17.16;100.00;102504.13;5012871;28;20060;-32
2022/07/11 05:43:02;;;;;;;1.63;0.70;;;;;;;17.14;100.00;102503.59;5012971;28;20100;-32
2022/07/11 05:45:30;;;;;;;2.10;0.60;;;;;;;17.12;100.00;102495.44;5012660;28;20060;-32
2022/07/11 05:47:58;;;;;;;2.10;0.80;;;;;;;17.10;100.00;102494.91;5012609;28;20536;-36
2022/07/11 05:50:26;;;;;;;1.65;0.45;;;;;;;17.12;100.00;102503.06;5011949;28;20145;-37
2022/07/11 05:52:57;;;;;;;1.27;0.40;;;;;;;17.13;100.00;102496.28;5013256;28;20146;-34
2022/07/11 05:55:24;;;;;;;1.25;0.50;;;;;;;17.16;100.00;102493.69;5012304;28;20046;-38
2022/07/11 05:57:54;;;;;;;1.38;0.55;;;;;;;17.21;100.00;102496.41;5013687;28;20076;-35
2022/07/11 06:00:22;;;;;;;0.95;0.40;;;;;;;17.27;100.00;102487.88;5012795;28;20144;-32
2022/07/11 06:02:50;;;;;;;2.03;0.50;;;;;;;17.35;100.00;102501.31;5010796;28;20042;-32
2022/07/11 06:05:18;;;;;;;1.48;0.50;;;;;;;17.42;100.00;102502.59;5012815;28;20064;-37
2022/07/11 06:10:32;;;;;;;1.15;0.45;;;;;;;17.45;100.00;102504.81;5012065;28;20129;-42
2022/07/11 06:13:01;;;;;;;0.93;0.43;;;;;;;17.49;100.00;102503.06;5012953;28;20053;-35
2022/07/11 06:15:29;;;;;;;1.15;0.40;;;;;;;17.52;100.00;102499.63;5012311;28;20038;-31
2022/07/11 06:17:57;;;;;;;1.33;0.50;;;;;;;17.58;100.00;102506.03;5012163;28;20058;-36
2022/07/11 06:20:25;;;;;;;1.50;0.40;;;;;;;17.64;100.00;102515.25;5012564;28;20052;-32
2022/07/11 06:22:53;;;;;;;0.57;0.30;;;;;;;17.69;100.00;102513.22;5012790;28;20407;-32
2022/07/11 06:25:21;;;;;;;0.90;0.40;;;;;;;17.79;100.00;102512.19;5011495;28;20054;-39
2022/07/11 06:27:49;;;;;;;1.55;0.43;;;;;;;17.90;100.00;102519.38;5012637;28;20048;-36
2022/07/11 06:30:21;;;;;;;0.77;0.30;;;;;;;17.97;100.00;102516.16;5012359;28;20054;-34
2022/07/11 06:32:49;;;;;;;1.38;0.30;;;;;;;18.05;100.00;102521.06;5008332;28;20125;-36
2022/07/11 06:35:17;;;;;;;0.63;0.30;;;;;;;18.12;100.00;102525.19;5012452;28;20046;-32
2022/07/11 06:37:44;;;;;;;0.60;0.30;;;;;;;18.21;100.00;102526.13;5011371;28;20136;-32
2022/07/11 06:40:12;;;;;;;0.40;0.20;;;;;;;18.28;100.00;102517.28;5012232;28;20062;-41
2022/07/11 06:42:41;;;;;;;0.68;0.25;;;;;;;18.51;100.00;102515.41;5011850;28;20092;-38
2022/07/11 06:45:09;;;;;;;0.85;0.20;;;;;;;18.82;100.00;102530.63;5011829;28;20443;-42
2022/07/11 06:47:38;;;;;;;0.45;0.10;;;;;;;19.12;100.00;102536.81;5008758;28;20145;-39
2022/07/11 06:50:08;;;;;;;1.35;0.38;;;;;;;19.26;100.00;102529.13;5012196;28;20082;-43
2022/07/11 06:52:36;;;;;;;0.88;0.20;;;;;;;19.31;100.00;102539.50;5010941;28;20088;-39
2022/07/11 06:55:05;;;;;;;1.17;0.30;;;;;;;19.30;100.00;102538.66;5011979;28;20495;-32
2022/07/11 06:57:32;;;;;;;0.60;0.20;;;;;;;19.32;100.00;102542.03;5011521;28;20501;-32
2022/07/11 07:00:00;;;;;;;0.93;0.30;;;;;;;19.37;100.00;102543.91;5011336;28;20078;-36
2022/07/11 07:02:30;;;;;;;0.50;0.20;;;;;;;19.40;100.00;102535.59;5010267;28;20081;-32
2022/07/11 07:04:59;;;;;;;0.38;0.20;;;;;;;19.44;100.00;102542.28;5012220;28;20042;-34
2022/07/11 07:07:28;;;;;;;0.85;0.20;;;;;;;19.44;100.00;102541.47;5010832;28;20132;-32
2022/07/11 07:09:56;;;;;;;0.90;0.20;;;;;;;19.47;100.00;102543.66;5011945;28;20049;-41
2022/07/11 07:12:24;;;;;;;0.20;0.10;;;;;;;19.45;100.00;102535.47;5011416;28;20450;-42
2022/07/11 07:14:52;;;;;;;1.90;0.20;;;;;;;19.42;100.00;102543.75;5010405;28;20422;-32
2022/07/11 07:17:20;;;;;;;0.30;0.20;;;;;;;19.45;100.00;102543.97;5011148;28;20077;-36
2022/07/11 07:19:48;;;;;;;0.60;0.30;;;;;;;19.45;100.00;102532.66;5010943;28;20060;-39
2022/07/11 07:22:17;;;;;;;0.45;0.10;;;;;;;19.47;100.00;102541.66;5011375;28;20140;-32
2022/07/11 07:24:45;;;;;;;0.13;0.10;;;;;;;19.48;100.00;102543.34;5011670;28;20106;-37
2022/07/11 07:27:14;;;;;;;0.35;0.20;;;;;;;19.47;100.00;102535.16;5010604;28;20066;-34
2022/07/11 07:29:41;;;;;;;1.45;0.40;;;;;;;19.45;100.00;102531.81;5011603;28;20046;-37
2022/07/11 07:32:09;;;;;;;1.13;0.55;;;;;;;19.46;100.00;102539.97;5011218;28;20073;-32
2022/07/11 07:34:37;;;;;;;0.70;0.30;;;;;;;19.51;100.00;102539.91;5009993;28;20050;-34
2022/07/11 07:37:05;;;;;;;0.60;0.28;;;;;;;19.64;100.00;102535.34;5011299;28;20136;-33
2022/07/11 07:39:34;;;;;;;0.60;0.20;;;;;;;19.79;100.00;102542.63;5011074;28;20413;-36
2022/07/11 07:42:02;;;;;;;0.68;0.28;;;;;;;19.82;100.00;102540.00;5010663;28;20137;-34
2022/07/11 07:44:30;;;;;;;1.02;0.40;;;;;;;19.84;100.00;102543.34;5007823;28;20046;-32
2022/07/11 07:46:57;;;;;;;0.65;0.28;;;;;;;19.86;100.00;102543.03;5010898;28;20060;-33
2022/07/11 07:49:27;;;;;;;3.65;0.60;;;;;;;19.88;100.00;102537.88;5009473;28;20115;-37
2022/07/11 07:51:54;;;;;;;0.70;0.22;;;;;;;19.89;100.00;102539.56;5011512;28;20058;-33
2022/07/11 07:54:22;;;;;;;0.75;0.20;;;;;;;19.87;100.00;102541.88;5010877;28;20593;-38
2022/07/11 07:56:51;;;;;;;0.55;0.30;;;;;;;19.86;100.00;102552.38;5010566;28;20056;-37
2022/07/11 07:59:19;;;;;;;0.98;0.30;;;;;;;19.83;100.00;102553.00;5010767;28;20045;-37
2022/07/11 08:01:47;;;;;;;0.65;0.20;;;;;;;19.88;100.00;102550.03;5009683;28;20414;-33
2022/07/11 08:04:15;;;;;;;0.60;0.20;;;;;;;19.98;100.00;102553.81;5009862;28;20057;-39
2022/07/11 08:06:43;;;;;;;0.47;0.20;;;;;;;20.05;100.00;102546.50;5011302;28;20054;-32
2022/07/11 08:09:12;;;;;;;0.25;0.10;;;;;;;20.14;100.00;102555.91;5010302;28;20088;-41
2022/07/11 08:11:46;;;;;;;0.68;0.20;;;;;;;20.16;100.00;102547.09;5011160;28;20458;-38
2022/07/11 08:14:15;;;;;;;0.43;0.25;;;;;;;20.17;100.00;102555.28;5010424;28;20050;-43
2022/07/11 08:16:43;;;;;;;0.90;0.20;;;;;;;20.21;100.00;102550.59;4999548;28;20056;-32
2022/07/11 08:19:11;;;;;;;1.00;0.30;;;;;;;20.20;100.00;102554.59;5010701;28;20084;-32
2022/07/11 08:21:39;;;;;;;0.80;0.40;;;;;;;20.19;100.00;102552.91;5008352;28;20430;-39
2022/07/11 08:24:08;;;;;;;1.40;0.40;;;;;;;20.22;100.00;102554.28;5010327;28;20058;-35
2022/07/11 08:26:35;;;;;;;2.13;0.40;;;;;;;20.26;100.00;102546.81;5011116;28;20042;-35
2022/07/11 08:29:04;;;;;;;1.13;0.30;;;;;;;20.30;100.00;102553.50;5014168;28;20129;-34
2022/07/11 08:31:36;;;;;;;1.10;0.30;;;;;;;20.34;100.00;102560.22;5014427;28;20045;-37
2022/07/11 08:34:04;;;;;;;1.13;0.40;;;;;;;20.39;100.00;102557.25;5015714;28;20046;-34
2022/07/11 08:36:34;;;;;;;2.03;0.40;;;;;;;20.44;100.00;102559.94;5015358;28;20482;-37
2022/07/11 08:39:03;;;;;;;2.42;0.40;;;;;;;20.49;100.00;102550.47;5014704;28;20487;-38
2022/07/11 08:41:32;;;;;;;1.27;0.50;;;;;;;20.61;100.00;102550.69;5015021;28;20614;-37
2022/07/11 08:44:01;;;;;;;1.60;0.47;;;;;;;20.71;100.00;102552.41;5014373;28;20141;-42
2022/07/11 08:46:30;;;;;;;1.05;0.40;;;;;;;20.81;100.00;102550.13;5013671;28;20177;-33
2022/07/11 08:49:00;;;;;;;1.02;0.40;;;;;;;20.95;100.00;102548.03;5015294;28;20442;-38
2022/07/11 08:51:28;;;;;;;0.85;0.40;;;;;;;21.09;100.00;102541.38;5014258;28;20042;-40
2022/07/11 08:53:56;;;;;;;1.83;0.40;;;;;;;21.15;100.00;102543.72;5015173;28;20057;-40
2022/07/11 08:56:26;;;;;;;0.98;0.40;;;;;;;21.23;100.00;102542.09;5014586;28;20474;-33
2022/07/11 08:58:55;;;;;;;1.23;0.30;;;;;;;21.28;100.00;102544.78;5013568;28;20074;-34
2022/07/11 09:01:29;;;;;;;1.20;0.50;;;;;;;21.36;100.00;102551.66;5014313;28;20135;-33
2022/07/11 09:04:00;;;;;;;1.48;0.40;;;;;;;21.44;100.00;102543.13;5015139;28;20057;-38
2022/07/11 09:06:28;;;;;;;1.00;0.40;;;;;;;21.55;100.00;102538.81;5013790;28;20103;-33
2022/07/11 09:09:00;;;;;;;1.40;0.50;;;;;;;21.69;99.15;102534.97;5015317;28;20046;-33
2022/07/11 09:11:28;;;;;;;0.75;0.40;;;;;;;21.81;98.38;102540.81;5014773;28;20680;-41
2022/07/11 09:13:56;;;;;;;0.80;0.30;;;;;;;21.90;98.22;102545.31;5014159;28;20053;-33
2022/07/11 09:16:28;;;;;;;1.13;0.60;;;;;;;22.09;97.73;102545.00;5014411;28;20073;-33
2022/07/11 09:19:01;;;;;;;0.60;0.30;;;;;;;22.26;96.79;102541.28;5014716;28;20081;-34
2022/07/11 09:26:58;;;;;;;1.25;0.50;;;;;;;22.44;94.20;102547.75;5013520;28;20046;-36
2022/07/11 09:29:27;;;;;;;1.33;0.50;;;;;;;22.43;93.60;102544.06;5014637;28;20140;-39
2022/07/11 09:31:55;;;;;;;2.20;0.50;;;;;;;22.49;93.63;102551.25;5014346;28;20053;-35
2022/07/11 09:34:26;;;;;;;1.00;0.45;;;;;;;22.56;93.77;102548.75;5013936;28;20191;-41
2022/07/11 09:36:56;;;;;;;0.98;0.45;;;;;;;22.59;93.12;102552.88;5014253;28;20068;-41
2022/07/11 09:39:25;;;;;;;0.90;0.45;;;;;;;22.62;93.22;102546.53;5013624;28;20129;-37
2022/07/11 09:41:54;;;;;;;1.02;0.40;;;;;;;22.64;93.34;102542.16;5013236;28;20065;-35
2022/07/11 09:44:24;;;;;;;1.27;0.40;;;;;;;22.64;92.92;102545.00;5014580;28;20053;-33
2022/07/11 09:46:52;;;;;;;0.93;0.40;;;;;;;22.62;92.84;102543.69;5014300;28;20046;-33
2022/07/11 09:49:32;;;;;;;1.25;0.50;;;;;;;22.73;92.30;102545.00;5013609;28;20075;-34
2022/07/11 09:52:11;;;;;;;1.50;0.60;;;;;;;22.79;91.36;102545.66;5014093;28;20046;-35
2022/07/11 09:54:56;;;;;;;1.17;0.50;;;;;;;22.85;90.56;102547.97;5010854;28;20061;-42
2022/07/11 09:57:31;;;;;;;1.27;0.60;;;;;;;22.88;90.09;102547.28;5013936;28;20042;-34
2022/07/11 10:00:00;;;;;;;1.10;0.40;;;;;;;22.84;89.88;102534.91;5014162;28;20057;-36
2022/07/11 10:02:31;;;;;;;2.03;0.35;;;;;;;22.85;89.49;102547.97;5013012;28;20054;-36
2022/07/11 10:05:01;;;;;;;2.55;0.47;;;;;;;22.84;89.45;102542.63;5013963;28;20046;-42
2022/07/11 10:07:30;;;;;;;1.25;0.40;;;;;;;22.87;90.10;102544.78;5014030;28;20461;-33
2022/07/11 10:09:58;;;;;;;0.75;0.40;;;;;;;22.92;90.06;102548.28;5013377;28;20128;-34
2022/07/11 10:12:29;;;;;;;0.88;0.30;;;;;;;23.03;89.98;102546.69;5013977;28;20050;-36
2022/07/11 10:14:58;;;;;;;1.08;0.40;;;;;;;23.16;89.06;102549.66;5012905;28;20062;-40
2022/07/11 10:17:31;;;;;;;1.08;0.68;;;;;;;23.27;87.79;102548.91;5013114;28;20096;-36
2022/07/11 10:20:12;;;;;;;1.35;0.50;;;;;;;23.38;86.94;102553.00;5013712;28;20054;-40
2022/07/11 10:22:45;;;;;;;1.38;0.40;;;;;;;23.55;87.09;102554.13;5012934;28;20132;-35
2022/07/11 10:25:20;;;;;;;0.95;0.40;;;;;;;23.81;86.40;102551.03;5013642;28;20057;-36
2022/07/11 10:28:00;;;;;;;1.25;0.35;;;;;;;24.05;84.60;102549.16;5013412;28;20045;-40
2022/07/11 10:30:48;;;;;;;1.38;0.43;;;;;;;24.36;83.46;102551.56;5012522;28;20141;-38
2022/07/11 10:33:17;;;;;;;1.33;0.40;;;;;;;24.60;82.81;102544.22;5013489;28;20050;-34
2022/07/11 10:35:49;;;;;;;1.42;0.50;;;;;;;24.93;80.74;102547.84;5013240;28;20470;-38
2022/07/11 10:38:18;;;;;;;0.82;0.32;;;;;;;25.17;79.21;102551.91;5012634;28;20511;-33
2022/07/11 10:40:48;;;;;;;0.85;0.40;;;;;;;25.30;78.17;102545.81;5013026;28;20060;-41
2022/07/11 10:43:33;;;;;;;0.93;0.38;;;;;;;25.49;78.02;102548.03;5013036;28;20069;-41
2022/07/11 10:46:03;;;;;;;0.95;0.35;;;;;;;25.78;76.27;102551.81;5011912;28;20176;-36
2022/07/11 10:48:33;;;;;;;1.02;0.30;;;;;;;26.10;75.46;102550.72;5012393;28;20060;-36
2022/07/11 10:51:23;;;;;;;0.70;0.32;;;;;;;26.60;71.57;102549.28;5011922;28;20050;-33
2022/07/11 10:53:53;;;;;;;1.02;0.30;;;;;;;27.03;71.58;102554.13;5012411;28;20140;-35
2022/07/11 10:56:58;;;;;;;0.38;0.20;;;;;;;27.62;67.14;102550.22;5010748;28;20462;-35
2022/07/11 10:59:25;;;;;;;0.60;0.30;;;;;;;27.97;66.60;102556.75;5011839;28;20042;-36
2022/07/11 11:02:14;;;;;;;2.00;0.35;;;;;;;28.21;61.85;102546.16;5012170;28;20133;-33
2022/07/11 11:04:44;;;;;;;1.20;0.40;;;;;;;28.15;62.95;102542.78;5012328;28;20053;-39
2022/07/11 11:07:38;;;;;;;1.10;0.30;;;;;;;28.17;60.90;102545.25;5011815;28;20481;-34
2022/07/11 11:10:28;;;;;;;1.05;0.30;;;;;;;28.39;61.64;102547.34;5010565;28;20104;-36
2022/07/11 11:13:14;;;;;;;1.10;0.40;;;;;;;28.51;57.63;102554.97;5003801;28;20136;-40
2022/07/11 11:15:44;;;;;;;1.30;0.40;;;;;;;28.58;59.41;102552.25;5012472;28;20141;-34
2022/07/11 11:18:42;;;;;;;1.38;0.40;;;;;;;28.86;56.77;102544.16;5012882;28;20053;-34
2022/07/11 11:21:23;;;;;;;0.90;0.40;;;;;;;29.11;54.93;102551.16;5010721;28;20458;-37
2022/07/11 11:24:11;;;;;;;1.27;0.40;;;;;;;29.32;53.67;102558.44;5012643;28;20054;-34
2022/07/11 11:26:47;;;;;;;1.67;0.47;;;;;;;29.54;53.66;102554.72;5011328;28;20589;-34
2022/07/11 11:29:29;;;;;;;1.48;0.35;;;;;;;29.56;53.59;102560.09;5012754;28;20045;-38
2022/07/11 11:31:59;;;;;;;0.80;0.30;;;;;;;29.62;53.11;102561.38;5011404;28;20525;-34
2022/07/11 11:34:27;;;;;;;1.10;0.30;;;;;;;29.75;52.08;102557.91;5011968;28;20046;-34
2022/07/11 11:36:58;;;;;;;1.42;0.50;;;;;;;29.78;51.43;102545.56;5012101;28;20112;-35
2022/07/11 11:39:30;;;;;;;1.33;0.40;;;;;;;29.88;51.38;102544.06;5012509;28;20141;-34
2022/07/11 11:42:06;;;;;;;1.23;0.40;;;;;;;30.10;50.04;102540.28;5011317;28;20084;-35